createdAt,value
2019-05-06T00:00:04.748Z,99735.03
2019-05-06T00:02:26.371Z,99740.11
2019-05-06T00:04:47.974Z,99734.11
2019-05-06T00:07:10.112Z,99734.30
2019-05-06T00:09:31.758Z,99731.00
2019-05-06T00:11:54.404Z,99736.08
2019-05-06T00:14:16.371Z,99739.50
2019-05-06T00:16:37.889Z,99732.12
2019-05-06T00:18:59.982Z,99735.50
2019-05-06T00:21:24.200Z,99737.89
2019-05-06T00:23:44.997Z,99737.58
2019-05-06T00:26:07.194Z,99739.67
2019-05-06T00:28:28.930Z,99740.71
2019-05-06T00:30:50.500Z,99734.67
2019-05-06T00:33:13.592Z,99738.09
2019-05-06T00:35:35.337Z,99727.83
2019-05-06T00:37:57.577Z,99725.44
2019-05-06T00:40:18.855Z,99734.99
2019-05-06T00:42:40.557Z,99730.22
2019-05-06T00:45:04.448Z,99737.08
2019-05-06T00:47:25.569Z,99733.16
2019-05-06T00:49:47.248Z,99740.85
2019-05-06T00:52:08.601Z,99741.80
2019-05-06T00:54:30.195Z,99741.05
2019-05-06T00:56:54.126Z,99738.48
2019-05-06T00:59:15.785Z,99737.13
2019-05-06T01:01:37.480Z,99739.61
2019-05-06T01:03:59.101Z,99738.26
2019-05-06T01:06:20.705Z,99730.97
2019-05-06T01:08:44.025Z,99729.94
2019-05-06T01:11:07.095Z,99729.44
2019-05-06T01:13:28.533Z,99730.16
2019-05-06T01:15:50.101Z,99733.36
2019-05-06T01:18:13.664Z,99728.17
2019-05-06T01:20:35.031Z,99732.55
2019-05-06T01:22:56.529Z,99731.91
2019-05-06T01:25:17.845Z,99733.80
2019-05-06T01:27:39.248Z,99739.70
2019-05-06T01:30:00.880Z,99739.70
2019-05-06T01:32:23.681Z,99737.75
2019-05-06T01:34:45.662Z,99736.08
2019-05-06T01:37:07.749Z,99736.90
2019-05-06T01:39:30.181Z,99737.62
2019-05-06T01:41:53.526Z,99738.88
2019-05-06T01:44:15.127Z,99740.75
2019-05-06T01:46:36.424Z,99736.04
2019-05-06T01:48:58.331Z,99740.09
2019-05-06T01:51:19.996Z,99741.44
2019-05-06T01:53:41.928Z,99736.76
2019-05-06T01:56:03.683Z,99738.33
2019-05-06T01:58:25.676Z,99742.06
2019-05-06T02:00:47.063Z,99736.84
2019-05-06T02:03:09.236Z,99739.45
2019-05-06T02:05:30.805Z,99744.53
2019-05-06T02:07:54.928Z,99741.23
2019-05-06T02:10:15.648Z,99743.08
2019-05-06T02:12:37.350Z,99737.36
2019-05-06T02:14:58.895Z,99739.43
2019-05-06T02:17:20.718Z,99743.70
2019-05-06T02:19:43.843Z,99742.56
2019-05-06T02:22:06.027Z,99744.09
2019-05-06T02:24:27.580Z,99738.70
2019-05-06T02:26:49.278Z,99740.36
2019-05-06T02:29:11.160Z,99744.83
2019-05-06T02:31:35.168Z,99747.66
2019-05-06T02:33:56.056Z,99747.23
2019-05-06T02:36:17.718Z,99741.64
2019-05-06T02:38:48.087Z,99744.23
2019-05-06T02:41:03.444Z,99747.88
2019-05-06T02:43:25.547Z,99743.11
2019-05-06T02:45:47.102Z,99744.59
2019-05-06T02:48:09.327Z,99748.42
2019-05-06T02:50:33.790Z,99753.11
2019-05-06T02:52:53.932Z,99746.67
2019-05-06T02:55:16.146Z,99744.50
2019-05-06T02:57:37.740Z,99743.44
2019-05-06T02:59:59.467Z,99738.88
2019-05-06T03:02:38.110Z,99743.97
2019-05-06T03:04:44.130Z,99741.80
2019-05-06T03:07:05.616Z,99742.84
2019-05-06T03:09:27.496Z,99740.95
2019-05-06T03:11:48.649Z,99743.02
2019-05-06T03:14:10.206Z,99739.82
2019-05-06T03:16:33.357Z,99738.38
2019-05-06T03:18:55.561Z,99738.05
2019-05-06T03:21:17.463Z,99738.55
2019-05-06T03:23:38.970Z,99737.20
2019-05-06T03:26:00.163Z,99733.34
2019-05-06T03:28:22.635Z,99731.89
2019-05-06T03:30:46.036Z,99733.52
2019-05-06T03:33:38.384Z,99729.06
2019-05-06T03:35:44.113Z,99729.91
2019-05-06T03:37:53.888Z,99733.95
2019-05-06T03:40:22.908Z,99732.19
2019-05-06T03:42:42.841Z,99732.19
2019-05-06T03:45:04.428Z,99732.91
2019-05-06T03:47:26.516Z,99725.84
2019-05-06T03:49:50.142Z,99726.87
2019-05-06T03:52:13.617Z,99724.39
2019-05-06T03:54:34.605Z,99725.64
2019-05-06T03:56:56.314Z,99724.80
2019-05-06T03:59:18.378Z,99723.98
2019-05-06T04:01:42.949Z,99726.86
2019-05-06T04:04:04.017Z,99725.20
2019-05-06T04:06:26.381Z,99733.52
2019-05-06T04:08:48.462Z,99729.68
2019-05-06T04:11:10.313Z,99744.21
2019-05-06T04:13:33.270Z,99739.95
2019-05-06T04:15:55.178Z,99741.39
2019-05-06T04:18:17.285Z,99743.70
2019-05-06T04:20:39.039Z,99747.84
2019-05-06T04:23:06.015Z,99741.73
2019-05-06T04:25:24.232Z,99744.03
2019-05-06T04:27:45.816Z,99742.14
2019-05-06T04:30:06.941Z,99744.13
2019-05-06T04:32:29.122Z,99745.27
2019-05-06T04:34:53.210Z,99741.02
2019-05-06T04:37:14.473Z,99751.39
2019-05-06T04:39:36.115Z,99750.70
2019-05-06T04:41:58.278Z,99751.56
2019-05-06T04:44:19.336Z,99753.41
2019-05-06T04:46:44.029Z,99757.27
2019-05-06T04:49:04.481Z,99756.20
2019-05-06T04:51:26.474Z,99758.63
2019-05-06T04:53:48.636Z,99752.16
2019-05-06T04:56:10.121Z,99747.82
2019-05-06T04:58:33.525Z,99753.41
2019-05-06T05:00:55.349Z,99753.38
2019-05-06T05:03:16.830Z,99757.81
2019-05-06T05:05:38.493Z,99754.59
2019-05-06T05:08:02.474Z,99753.85
2019-05-06T05:10:23.455Z,99752.58
2019-05-06T05:12:45.956Z,99752.25
2019-05-06T05:15:08.306Z,99755.23
2019-05-06T05:17:29.861Z,99761.63
2019-05-06T05:19:52.310Z,99759.51
2019-05-06T05:22:14.765Z,99757.63
2019-05-06T05:24:36.455Z,99760.22
2019-05-06T05:26:58.208Z,99762.59
2019-05-06T05:29:20.164Z,99762.52
2019-05-06T05:31:43.565Z,99767.88
2019-05-06T05:34:04.532Z,99776.82
2019-05-06T05:36:26.251Z,99772.06
2019-05-06T05:38:48.332Z,99775.20
2019-05-06T05:41:09.649Z,99774.20
2019-05-06T05:43:32.626Z,99772.66
2019-05-06T05:45:54.122Z,99776.11
2019-05-06T05:48:15.864Z,99776.84
2019-05-06T05:50:37.737Z,99778.72
2019-05-06T05:52:59.741Z,99784.28
2019-05-06T05:55:21.948Z,99781.36
2019-05-06T05:57:43.391Z,99784.80
2019-05-06T06:00:04.801Z,99777.11
2019-05-06T06:02:26.770Z,99775.36
2019-05-06T06:04:54.774Z,99777.84
2019-05-06T06:07:12.173Z,99778.97
2019-05-06T06:09:34.321Z,99779.61
2019-05-06T06:11:55.598Z,99778.47
2019-05-06T06:14:17.944Z,99777.22
2019-05-06T06:16:39.013Z,99781.59
2019-05-06T06:19:03.099Z,99777.85
2019-05-06T06:21:28.036Z,99782.53
2019-05-06T06:23:47.789Z,99777.95
2019-05-06T06:26:12.149Z,99778.57
2019-05-06T06:28:34.634Z,99777.12
2019-05-06T06:30:56.474Z,99775.95
2019-05-06T06:33:18.180Z,99783.78
2019-05-06T06:35:42.522Z,99776.70
2019-05-06T06:38:03.690Z,99769.64
2019-05-06T06:40:25.325Z,99757.27
2019-05-06T06:42:47.500Z,99784.19
2019-05-06T06:45:08.747Z,99782.52
2019-05-06T06:47:32.027Z,99784.51
2019-05-06T06:49:54.545Z,99781.27
2019-05-06T06:52:15.903Z,99786.77
2019-05-06T06:54:38.409Z,99784.83
2019-05-06T06:57:06.159Z,99788.66
2019-05-06T06:59:22.802Z,99789.16
2019-05-06T07:01:44.402Z,99790.52
2019-05-06T07:04:10.625Z,99787.70
2019-05-06T07:06:29.290Z,99784.83
2019-05-06T07:08:51.800Z,99781.05
2019-05-06T07:11:13.895Z,99779.20
2019-05-06T07:13:36.103Z,99778.89
2019-05-06T07:15:57.369Z,99783.66
2019-05-06T07:18:19.080Z,99793.43
2019-05-06T07:20:42.942Z,99782.41
2019-05-06T07:23:04.478Z,99784.80
2019-05-06T07:25:26.157Z,99782.33
2019-05-06T07:27:47.556Z,99784.09
2019-05-06T07:30:09.171Z,99785.86
2019-05-06T07:32:32.604Z,99785.77
2019-05-06T07:34:55.371Z,99784.83
2019-05-06T07:37:17.464Z,99789.19
2019-05-06T07:39:42.806Z,99791.58
2019-05-06T07:42:02.906Z,99788.98
2019-05-06T07:44:24.997Z,99790.64
2019-05-06T07:46:46.807Z,99789.70
2019-05-06T07:49:08.969Z,99789.48
2019-05-06T07:51:32.379Z,99793.53
2019-05-06T07:53:53.058Z,99792.72
2019-05-06T07:56:15.477Z,99794.16
2019-05-06T07:58:37.106Z,99792.50
2019-05-06T08:00:58.451Z,99785.52
2019-05-06T08:03:22.213Z,99788.22
2019-05-06T08:05:54.622Z,99799.98
2019-05-06T08:08:07.823Z,99794.48
2019-05-06T08:10:29.716Z,99791.68
2019-05-06T08:12:52.675Z,99797.28
2019-05-06T08:15:14.561Z,99797.81
2019-05-06T08:17:36.410Z,99791.77
2019-05-06T08:19:58.205Z,99792.63
2019-05-06T08:22:22.565Z,99794.16
2019-05-06T08:24:43.506Z,99793.84
2019-05-06T08:27:05.219Z,99795.73
2019-05-06T08:29:27.529Z,99797.80
2019-05-06T08:31:49.187Z,99795.32
2019-05-06T08:34:12.286Z,99795.32
2019-05-06T08:36:34.506Z,99793.13
2019-05-06T08:38:55.550Z,99791.45
2019-05-06T08:41:17.211Z,99787.63
2019-05-06T08:43:39.242Z,99785.64
2019-05-06T08:46:03.255Z,99778.38
2019-05-06T08:48:25.695Z,99780.23
2019-05-06T08:50:47.583Z,99778.88
2019-05-06T08:53:09.574Z,99778.88
2019-05-06T08:55:32.604Z,99790.23
2019-05-06T08:57:54.736Z,99783.16
2019-05-06T09:00:17.562Z,99778.47
2019-05-06T09:02:39.043Z,99784.09
2019-05-06T09:05:02.913Z,99776.48
2019-05-06T09:07:24.609Z,99780.45
2019-05-06T09:09:46.670Z,99789.60
2019-05-06T09:12:08.700Z,99787.63
2019-05-06T09:14:32.630Z,99778.04
2019-05-06T09:16:54.083Z,99779.92
2019-05-06T09:19:16.031Z,99774.20
2019-05-06T09:21:38.161Z,99764.73
2019-05-06T09:23:59.294Z,99772.31
2019-05-06T09:26:22.430Z,99772.97
2019-05-06T09:28:44.393Z,99773.06
2019-05-06T09:31:09.441Z,99767.88
2019-05-06T09:33:29.084Z,99774.09
2019-05-06T09:35:52.849Z,99766.52
2019-05-06T09:38:13.637Z,99771.39
2019-05-06T09:40:35.342Z,99770.89
2019-05-06T09:42:56.739Z,99770.89
2019-05-06T09:45:18.961Z,99771.70
2019-05-06T09:47:42.402Z,99777.12
2019-05-06T09:50:04.567Z,99774.00
2019-05-06T09:52:27.061Z,99765.04
2019-05-06T09:54:48.878Z,99764.85
2019-05-06T09:57:12.888Z,99759.72
2019-05-06T09:59:34.763Z,99761.52
2019-05-06T10:01:56.011Z,99762.47
2019-05-06T10:04:17.509Z,99762.53
2019-05-06T10:06:39.065Z,99761.27
2019-05-06T10:09:04.799Z,99762.34
2019-05-06T10:11:24.032Z,99765.46
2019-05-06T10:13:45.896Z,99768.07
2019-05-06T10:16:08.099Z,99774.20
2019-05-06T10:18:29.788Z,99772.13
2019-05-06T10:20:51.778Z,99773.89
2019-05-06T10:23:13.499Z,99773.07
2019-05-06T10:25:35.496Z,99774.92
2019-05-06T10:27:57.427Z,99764.55
2019-05-06T10:30:19.406Z,99763.70
2019-05-06T10:32:42.642Z,99772.53
2019-05-06T10:35:04.801Z,99768.48
2019-05-06T10:37:26.976Z,99765.69
2019-05-06T10:39:52.062Z,99765.18
2019-05-06T10:42:13.477Z,99766.41
2019-05-06T10:44:35.618Z,99767.16
2019-05-06T10:46:57.295Z,99760.40
2019-05-06T10:49:22.485Z,99758.20
2019-05-06T10:51:42.838Z,99755.09
2019-05-06T10:54:04.756Z,99746.89
2019-05-06T10:56:26.550Z,99749.87
2019-05-06T10:58:48.411Z,99749.87
2019-05-06T11:01:12.491Z,99749.78
2019-05-06T11:03:33.425Z,99743.52
2019-05-06T11:05:55.541Z,99738.02
2019-05-06T11:08:17.295Z,99737.70
2019-05-06T11:10:41.490Z,99730.40
2019-05-06T11:13:03.464Z,99733.54
2019-05-06T11:15:25.373Z,99730.11
2019-05-06T11:17:46.662Z,99731.86
2019-05-06T11:20:10.580Z,99726.04
2019-05-06T11:22:32.730Z,99720.00
2019-05-06T11:24:55.851Z,99715.33
2019-05-06T11:27:28.892Z,99725.02
2019-05-06T11:29:43.552Z,99725.52
2019-05-06T11:32:04.936Z,99724.30
2019-05-06T11:34:26.583Z,99727.92
2019-05-06T11:36:48.020Z,99719.37
2019-05-06T11:39:14.021Z,99725.31
2019-05-06T11:41:33.625Z,99726.27
2019-05-06T11:43:55.992Z,99725.31
2019-05-06T11:46:17.361Z,99720.95
2019-05-06T11:48:39.282Z,99718.78
2019-05-06T11:51:01.058Z,99722.75
2019-05-06T11:53:23.133Z,99723.56
2019-05-06T11:55:44.342Z,99715.98
2019-05-06T11:58:06.955Z,99719.73
2019-05-06T12:00:29.050Z,99716.18
2019-05-06T12:02:53.157Z,99724.69
2019-05-06T12:05:14.068Z,99717.66
2019-05-06T12:07:36.037Z,99715.14
2019-05-06T12:09:58.353Z,99718.69
2019-05-06T12:12:19.724Z,99716.39
2019-05-06T12:14:42.963Z,99710.14
2019-05-06T12:17:05.029Z,99714.64
2019-05-06T12:19:26.458Z,99708.61
2019-05-06T12:21:48.394Z,99715.86
2019-05-06T12:24:12.112Z,99707.76
2019-05-06T12:26:32.756Z,99715.36
2019-05-06T12:28:54.489Z,99720.14
2019-05-06T12:31:15.784Z,99716.63
2019-05-06T12:33:37.775Z,99715.27
2019-05-06T12:36:02.436Z,99717.34
2019-05-06T12:38:30.438Z,99711.63
2019-05-06T12:40:46.261Z,99719.73
2019-05-06T12:43:07.983Z,99722.12
2019-05-06T12:45:29.046Z,99723.70
2019-05-06T12:47:53.394Z,99723.80
2019-05-06T12:50:14.758Z,99720.27
2019-05-06T12:52:36.030Z,99715.06
2019-05-06T12:55:16.367Z,99718.17
2019-05-06T12:57:23.384Z,99726.99
2019-05-06T12:59:45.448Z,99726.17
2019-05-06T13:02:06.597Z,99723.14
2019-05-06T13:04:46.298Z,99724.17
2019-05-06T13:06:52.201Z,99726.69
2019-05-06T13:09:14.463Z,99724.61
2019-05-06T13:11:35.864Z,99719.80
2019-05-06T13:14:00.770Z,99712.93
2019-05-06T13:16:22.827Z,99716.45
2019-05-06T13:18:47.338Z,99712.20
2019-05-06T13:21:09.552Z,99703.87
2019-05-06T13:23:34.631Z,99707.70
2019-05-06T13:25:53.988Z,99703.05
2019-05-06T13:28:15.841Z,99705.30
2019-05-06T13:30:38.264Z,99706.97
2019-05-06T13:33:00.164Z,99711.11
2019-05-06T13:35:23.133Z,99704.16
2019-05-06T13:37:44.518Z,99702.17
2019-05-06T13:40:06.602Z,99700.28
2019-05-06T13:42:28.505Z,99705.70
2019-05-06T13:44:50.176Z,99698.77
2019-05-06T13:47:12.185Z,99693.78
2019-05-06T13:49:33.875Z,99698.92
2019-05-06T13:51:55.777Z,99693.20
2019-05-06T13:54:17.591Z,99690.36
2019-05-06T13:56:39.733Z,99695.99
2019-05-06T14:01:05.805Z,99695.68
2019-05-06T14:03:27.378Z,99689.14
2019-05-06T14:05:51.948Z,99688.42
2019-05-06T14:08:13.115Z,99682.70
2019-05-06T14:10:35.125Z,99681.13
2019-05-06T14:12:56.459Z,99682.25
2019-05-06T14:15:18.297Z,99676.53
2019-05-06T14:17:39.389Z,99674.13
2019-05-06T14:20:02.636Z,99668.33
2019-05-06T14:22:24.558Z,99666.66
2019-05-06T14:24:46.305Z,99657.01
2019-05-06T14:27:08.640Z,99656.88
2019-05-06T14:29:32.877Z,99659.16
2019-05-06T14:31:53.658Z,99654.56
2019-05-06T14:34:15.941Z,99647.30
2019-05-06T14:36:37.407Z,99655.19
2019-05-06T14:38:59.303Z,99659.07
2019-05-06T14:41:26.071Z,99658.13
2019-05-06T14:43:43.953Z,99661.06
2019-05-06T14:46:05.262Z,99661.16
2019-05-06T14:48:26.409Z,99657.91
2019-05-06T14:50:48.742Z,99652.50
2019-05-06T14:53:13.027Z,99658.84
2019-05-06T14:55:34.776Z,99648.42
2019-05-06T14:57:56.557Z,99638.62
2019-05-06T15:00:18.335Z,99647.76
2019-05-06T15:02:42.720Z,99641.81
2019-05-06T15:05:04.037Z,99639.25
2019-05-06T15:07:26.043Z,99629.58
2019-05-06T15:09:58.600Z,99641.44
2019-05-06T15:12:12.945Z,99634.34
2019-05-06T15:14:35.011Z,99634.55
2019-05-06T15:16:56.711Z,99631.50
2019-05-06T15:19:18.218Z,99621.50
2019-05-06T15:21:42.521Z,99625.95
2019-05-06T15:24:02.801Z,99617.83
2019-05-06T15:26:25.134Z,99618.28
2019-05-06T15:28:47.039Z,99614.70
2019-05-06T15:31:09.335Z,99620.11
2019-05-06T15:33:32.910Z,99613.58
2019-05-06T15:35:54.174Z,99613.66
2019-05-06T15:38:16.310Z,99612.22
2019-05-06T15:40:38.182Z,99623.63
2019-05-06T15:42:59.711Z,99636.34
2019-05-06T15:45:21.964Z,99628.23
2019-05-06T15:47:43.656Z,99629.89
2019-05-06T15:50:05.683Z,99629.81
2019-05-06T15:52:26.735Z,99625.47
2019-05-06T15:54:49.468Z,99629.45
2019-05-06T15:57:11.978Z,99631.84
2019-05-06T15:59:33.765Z,99625.58
2019-05-06T16:01:55.807Z,99626.84
2019-05-06T16:04:17.764Z,99632.28
2019-05-06T16:06:39.402Z,99635.75
2019-05-06T16:09:03.546Z,99637.52
2019-05-06T16:11:24.799Z,99656.05
2019-05-06T16:13:46.738Z,99651.06
2019-05-06T16:16:08.197Z,99660.52
2019-05-06T16:18:32.576Z,99661.47
2019-05-06T16:20:57.267Z,99669.48
2019-05-06T16:23:17.109Z,99665.44
2019-05-06T16:25:39.859Z,99663.59
2019-05-06T16:28:02.281Z,99671.98
2019-05-06T16:30:24.578Z,99661.79
2019-05-06T16:32:46.490Z,99662.50
2019-05-06T16:35:07.917Z,99659.16
2019-05-06T16:37:30.078Z,99656.45
2019-05-06T16:39:54.160Z,99654.38
2019-05-06T16:42:15.840Z,99662.73
2019-05-06T16:44:37.691Z,99655.83
2019-05-06T16:47:02.941Z,99655.41
2019-05-06T16:49:23.640Z,99661.22
2019-05-06T16:51:45.323Z,99652.88
2019-05-06T16:54:06.951Z,99654.31
2019-05-06T16:56:30.047Z,99651.92
2019-05-06T16:58:52.543Z,99654.44
2019-05-06T17:01:15.284Z,99658.19
2019-05-06T17:03:37.668Z,99654.62
2019-05-06T17:05:59.476Z,99665.67
2019-05-06T17:08:23.370Z,99662.66
2019-05-06T17:10:44.171Z,99671.62
2019-05-06T17:13:05.927Z,99672.55
2019-05-06T17:15:27.935Z,99671.33
2019-05-06T17:17:49.383Z,99671.55
2019-05-06T17:20:12.203Z,99668.53
2019-05-06T17:22:34.463Z,99669.58
2019-05-06T17:24:55.890Z,99668.73
2019-05-06T17:27:18.034Z,99672.19
2019-05-06T17:29:39.856Z,99668.87
2019-05-06T17:32:02.539Z,99667.39
2019-05-06T17:34:24.422Z,99664.69
2019-05-06T17:36:46.021Z,99666.77
2019-05-06T17:39:08.161Z,99659.80
2019-05-06T17:41:42.462Z,99650.56
2019-05-06T17:43:54.162Z,99652.64
2019-05-06T17:46:15.855Z,99656.61
2019-05-06T17:48:37.281Z,99655.57
2019-05-06T17:50:58.897Z,99660.25
2019-05-06T17:53:22.865Z,99659.94
2019-05-06T17:55:44.642Z,99662.33
2019-05-06T17:58:06.558Z,99658.47
2019-05-06T18:00:28.280Z,99652.78
2019-05-06T18:02:50.231Z,99659.00
2019-05-06T18:05:13.108Z,99657.96
2019-05-06T18:07:34.667Z,99655.98
2019-05-06T18:09:56.245Z,99646.02
2019-05-06T18:12:17.883Z,99648.50
2019-05-06T18:14:39.513Z,99646.83
2019-05-06T18:17:03.432Z,99644.95
2019-05-06T18:19:24.401Z,99650.08
2019-05-06T18:21:45.828Z,99649.14
2019-05-06T18:24:09.870Z,99650.27
2019-05-06T18:26:32.781Z,99653.05
2019-05-06T18:28:54.398Z,99650.58
2019-05-06T18:31:16.584Z,99651.83
2019-05-06T18:33:38.160Z,99643.91
2019-05-06T18:35:59.933Z,99643.00
2019-05-06T18:38:21.916Z,99634.05
2019-05-06T18:40:43.584Z,99636.75
2019-05-06T18:43:05.474Z,99640.61
2019-05-06T18:45:27.277Z,99642.55
2019-05-06T18:47:48.947Z,99642.45
2019-05-06T18:50:12.399Z,99645.87
2019-05-06T18:52:33.889Z,99644.53
2019-05-06T18:54:56.403Z,99636.50
2019-05-06T18:57:18.423Z,99641.80
2019-05-06T18:59:39.757Z,99638.14
2019-05-06T19:02:02.129Z,99631.16
2019-05-06T19:04:24.158Z,99628.03
2019-05-06T19:06:45.771Z,99626.23
2019-05-06T19:09:07.284Z,99647.22
2019-05-06T19:11:28.791Z,99641.30
2019-05-06T19:13:52.516Z,99639.41
2019-05-06T19:16:14.333Z,99642.13
2019-05-06T19:18:38.690Z,99644.94
2019-05-06T19:21:02.522Z,99648.16
2019-05-06T19:23:23.085Z,99658.24
2019-05-06T19:25:45.093Z,99657.52
2019-05-06T19:28:06.430Z,99656.47
2019-05-06T19:30:28.699Z,99665.63
2019-05-06T19:32:52.701Z,99666.75
2019-05-06T19:35:13.864Z,99668.64
2019-05-06T19:37:35.490Z,99669.45
2019-05-06T19:39:57.575Z,99671.23
2019-05-06T19:42:22.201Z,99677.80
2019-05-06T19:44:45.447Z,99669.06
2019-05-06T19:47:06.650Z,99668.75
2019-05-06T19:49:28.869Z,99658.97
2019-05-06T19:51:52.258Z,99663.34
2019-05-06T19:54:14.032Z,99664.69
2019-05-06T19:56:38.085Z,99663.56
2019-05-06T19:59:01.979Z,99661.37
2019-05-06T20:01:22.953Z,99667.81
2019-05-06T20:03:45.013Z,99668.05
2019-05-06T20:06:05.879Z,99663.67
2019-05-06T20:08:27.751Z,99666.38
2019-05-06T20:10:49.316Z,99666.07
2019-05-06T20:13:13.358Z,99661.70
2019-05-06T20:15:34.285Z,99665.45
2019-05-06T20:17:55.543Z,99667.34
2019-05-06T20:20:17.603Z,99664.01
2019-05-06T20:22:39.095Z,99672.97
2019-05-06T20:25:03.100Z,99673.16
2019-05-06T20:27:24.717Z,99671.08
2019-05-06T20:29:47.416Z,99672.44
2019-05-06T20:32:09.098Z,99668.91
2019-05-06T20:34:32.063Z,99670.77
2019-05-06T20:36:53.585Z,99667.75
2019-05-06T20:39:15.841Z,99669.42
2019-05-06T20:41:37.612Z,99669.84
2019-05-06T20:43:59.282Z,99672.27
2019-05-06T20:46:22.714Z,99669.33
2019-05-06T20:48:44.481Z,99668.20
2019-05-06T20:51:05.993Z,99667.89
2019-05-06T20:53:27.834Z,99673.80
2019-05-06T20:55:49.969Z,99668.94
2019-05-06T20:58:12.222Z,99667.36
2019-05-06T21:00:33.881Z,99668.30
2019-05-06T21:02:55.279Z,99670.97
2019-05-06T21:05:17.085Z,99670.10
2019-05-06T21:07:38.946Z,99666.98
2019-05-06T21:10:02.272Z,99668.19
2019-05-06T21:14:25.464Z,99660.89
2019-05-06T21:16:48.248Z,99662.67
2019-05-06T21:19:12.426Z,99662.25
2019-05-06T21:21:32.969Z,99658.78
2019-05-06T21:23:55.084Z,99660.67
2019-05-06T21:26:16.860Z,99657.42
2019-05-06T21:28:38.667Z,99659.31
2019-05-06T21:31:00.165Z,99651.20
2019-05-06T21:33:22.119Z,99657.96
2019-05-06T21:35:44.306Z,99654.95
2019-05-06T21:38:06.066Z,99654.95
2019-05-06T21:40:27.868Z,99660.05
2019-05-06T21:42:49.603Z,99651.93
2019-05-06T21:45:12.519Z,99658.19
2019-05-06T21:47:35.006Z,99656.22
2019-05-06T21:49:57.078Z,99657.57
2019-05-06T21:52:18.903Z,99644.55
2019-05-06T21:54:43.254Z,99651.00
2019-05-06T21:57:04.529Z,99655.28
2019-05-06T21:59:27.014Z,99647.91
2019-05-06T22:01:48.865Z,99649.48
2019-05-06T22:04:12.845Z,99649.98
2019-05-06T22:06:33.668Z,99658.02
2019-05-06T22:08:55.452Z,99645.03
2019-05-06T22:11:17.470Z,99658.24
2019-05-06T22:13:39.197Z,99655.77
2019-05-06T22:16:04.343Z,99652.75
2019-05-06T22:18:24.239Z,99649.92
2019-05-06T22:20:46.510Z,99646.09
2019-05-06T22:23:08.797Z,99644.13
2019-05-06T22:25:30.037Z,99641.95
2019-05-06T22:27:52.165Z,99644.03
2019-05-06T22:30:14.251Z,99639.36
2019-05-06T22:32:36.365Z,99636.03
2019-05-06T22:34:57.916Z,99635.22
2019-05-06T22:37:22.007Z,99641.36
2019-05-06T22:39:43.680Z,99642.93
2019-05-06T22:42:06.171Z,99632.84
2019-05-06T22:44:28.030Z,99634.92
2019-05-06T22:46:50.061Z,99635.97
2019-05-06T22:49:13.156Z,99645.03
2019-05-06T22:51:34.162Z,99640.77
2019-05-06T22:53:56.655Z,99639.52
2019-05-06T22:56:18.958Z,99640.78
2019-05-06T22:58:42.813Z,99636.64
2019-05-06T23:01:04.895Z,99635.48
2019-05-06T23:03:26.779Z,99638.41
2019-05-06T23:05:48.399Z,99637.48
2019-05-06T23:08:12.154Z,99640.09
2019-05-06T23:10:33.862Z,99635.53
2019-05-06T23:12:56.343Z,99632.30
2019-05-06T23:15:18.281Z,99634.77
2019-05-06T23:17:41.965Z,99635.48
2019-05-06T23:20:02.495Z,99637.36
2019-05-06T23:22:24.432Z,99638.06
2019-05-06T23:24:45.963Z,99636.11
2019-05-06T23:27:07.698Z,99636.73
2019-05-06T23:29:29.284Z,99637.04
2019-05-06T23:31:52.098Z,99635.77
2019-05-06T23:34:14.149Z,99634.92
2019-05-06T23:36:36.541Z,99633.88
2019-05-06T23:38:58.634Z,99631.18
2019-05-06T23:41:21.925Z,99630.14
2019-05-06T23:43:43.731Z,99635.05
2019-05-06T23:46:05.694Z,99634.20
2019-05-06T23:48:27.605Z,99624.42
2019-05-06T23:50:49.190Z,99622.03
2019-05-06T23:53:12.331Z,99621.72
2019-05-06T23:55:34.110Z,99625.27
2019-05-06T23:57:55.860Z,99620.05
